createdAt,value
2017-06-15T00:00:17.205Z,4.70
2017-06-15T00:02:44.974Z,5.37
2017-06-15T00:05:12.515Z,5.25
2017-06-15T00:07:40.110Z,4.60
2017-06-15T00:10:07.645Z,4.87
2017-06-15T00:12:35.186Z,4.80
2017-06-15T00:15:02.789Z,5.55
2017-06-15T00:17:30.329Z,5.00
2017-06-15T00:19:57.873Z,5.22
2017-06-15T00:22:25.626Z,5.45
2017-06-15T00:24:53.975Z,5.35
2017-06-15T00:27:21.518Z,5.30
2017-06-15T00:29:49.098Z,5.32
2017-06-15T00:32:16.640Z,5.45
2017-06-15T00:34:44.246Z,5.75
2017-06-15T00:37:12.756Z,5.65
2017-06-15T00:39:40.303Z,5.62
2017-06-15T00:42:08.218Z,5.57
2017-06-15T00:44:35.758Z,5.25
2017-06-15T00:47:03.304Z,5.30
2017-06-15T00:49:30.937Z,5.53
2017-06-15T00:51:58.481Z,5.72
2017-06-15T00:54:26.020Z,5.70
2017-06-15T00:56:53.629Z,5.20
2017-06-15T00:59:21.931Z,5.30
2017-06-15T01:01:49.474Z,5.82
2017-06-15T01:04:17.221Z,6.57
2017-06-15T01:06:45.526Z,5.90
2017-06-15T01:09:13.105Z,6.12
2017-06-15T01:11:40.681Z,5.70
2017-06-15T01:14:08.222Z,5.90
2017-06-15T01:16:35.817Z,5.50
2017-06-15T01:19:03.355Z,5.65
2017-06-15T01:21:30.902Z,5.47
2017-06-15T01:23:58.625Z,5.75
2017-06-15T01:26:26.935Z,6.15
2017-06-15T01:28:55.479Z,5.90
2017-06-15T01:31:23.800Z,5.85
2017-06-15T01:33:51.378Z,5.55
2017-06-15T01:36:18.918Z,6.00
2017-06-15T01:38:46.677Z,6.40
2017-06-15T01:41:14.214Z,6.20
2017-06-15T01:43:42.521Z,6.20
2017-06-15T01:46:10.169Z,5.75
2017-06-15T01:48:37.710Z,6.22
2017-06-15T01:51:06.028Z,6.20
2017-06-15T01:53:33.658Z,6.32
2017-06-15T01:56:01.965Z,6.15
2017-06-15T01:58:29.504Z,6.03
2017-06-15T02:00:57.181Z,6.57
2017-06-15T02:03:24.829Z,5.85
2017-06-15T02:05:52.370Z,5.82
2017-06-15T02:08:19.914Z,5.93
2017-06-15T02:10:47.498Z,6.10
2017-06-15T02:13:15.421Z,5.82
2017-06-15T02:15:42.973Z,6.43
2017-06-15T02:18:10.509Z,5.93
2017-06-15T02:20:38.146Z,6.30
2017-06-15T02:23:06.541Z,5.97
2017-06-15T02:25:34.082Z,5.65
2017-06-15T02:28:02.394Z,6.05
2017-06-15T02:30:30.346Z,5.65
2017-06-15T02:32:57.893Z,6.15
2017-06-15T02:35:26.198Z,6.03
2017-06-15T02:37:58.986Z,5.97
2017-06-15T02:40:26.525Z,5.72
2017-06-15T02:42:54.137Z,5.70
2017-06-15T02:45:21.677Z,5.80
2017-06-15T02:47:49.218Z,5.85
2017-06-15T02:50:16.797Z,6.20
2017-06-15T02:52:44.413Z,5.82
2017-06-15T02:55:11.953Z,6.07
2017-06-15T02:57:39.497Z,5.80
2017-06-15T03:00:07.191Z,6.85
2017-06-15T03:02:34.737Z,6.20
2017-06-15T03:05:02.333Z,6.25
2017-06-15T03:07:29.889Z,5.90
2017-06-15T03:09:58.193Z,5.87
2017-06-15T03:12:25.874Z,5.75
2017-06-15T03:14:53.914Z,6.37
2017-06-15T03:17:21.458Z,6.50
2017-06-15T03:19:49.298Z,5.80
2017-06-15T03:22:16.853Z,5.57
2017-06-15T03:24:44.394Z,5.80
2017-06-15T03:27:11.973Z,5.97
2017-06-15T03:29:39.929Z,6.18
2017-06-15T03:32:07.506Z,5.97
2017-06-15T03:34:35.041Z,6.45
2017-06-15T03:37:02.919Z,5.85
2017-06-15T03:39:30.734Z,6.03
2017-06-15T03:41:58.318Z,6.10
2017-06-15T03:44:25.898Z,5.60
2017-06-15T03:46:58.417Z,5.25
2017-06-15T03:49:25.982Z,5.60
2017-06-15T03:51:54.290Z,5.03
2017-06-15T03:54:22.022Z,5.85
2017-06-15T03:56:49.634Z,5.82
2017-06-15T03:59:17.194Z,5.75
2017-06-15T04:01:44.755Z,5.62
2017-06-15T04:04:12.346Z,5.70
2017-06-15T04:06:39.893Z,5.50
2017-06-15T04:09:07.649Z,6.20
2017-06-15T04:11:35.189Z,5.68
2017-06-15T04:14:02.736Z,6.00
2017-06-15T04:16:30.513Z,5.70
2017-06-15T04:18:58.061Z,5.47
2017-06-15T04:21:25.642Z,6.28
2017-06-15T04:23:53.190Z,5.35
2017-06-15T04:26:20.922Z,5.35
2017-06-15T04:28:49.225Z,5.78
2017-06-15T04:31:16.806Z,5.60
2017-06-15T04:33:44.350Z,5.80
2017-06-15T04:36:11.950Z,5.25
2017-06-15T04:38:39.718Z,5.57
2017-06-15T04:41:07.281Z,5.68
2017-06-15T04:43:34.970Z,5.78
2017-06-15T04:46:11.089Z,5.35
2017-06-15T13:22:19.261Z,5.70
2017-06-15T13:24:46.841Z,5.63
2017-06-15T13:27:14.397Z,5.50
2017-06-15T13:29:42.049Z,5.27
2017-06-15T13:32:09.603Z,5.00
2017-06-15T13:34:37.202Z,5.17
2017-06-15T13:37:04.755Z,4.80
2017-06-15T13:39:32.300Z,4.80
2017-06-15T13:42:01.245Z,4.63
2017-06-15T13:44:29.554Z,5.00
2017-06-15T13:46:57.217Z,5.40
2017-06-15T13:49:24.758Z,4.97
2017-06-15T13:51:52.341Z,5.10
2017-06-15T13:54:19.877Z,5.17
2017-06-15T13:56:47.477Z,5.70
2017-06-15T13:59:15.035Z,5.33
2017-06-15T14:01:42.573Z,5.57
2017-06-15T14:04:10.479Z,5.70
2017-06-15T14:06:38.019Z,5.60
2017-06-15T14:09:05.566Z,5.40
2017-06-15T14:11:33.151Z,5.43
2017-06-15T14:14:00.695Z,5.83
2017-06-15T14:16:28.230Z,7.67
2017-06-15T14:18:56.029Z,6.83
2017-06-15T14:21:23.626Z,6.00
2017-06-15T14:23:51.163Z,6.30
2017-06-15T14:26:18.729Z,5.57
2017-06-15T14:28:46.798Z,6.27
2017-06-15T14:31:14.339Z,6.20
2017-06-15T14:33:41.877Z,6.10
2017-06-15T14:36:09.609Z,5.47
2017-06-15T14:38:37.190Z,6.47
2017-06-15T14:41:05.493Z,8.70
2017-06-15T14:43:33.489Z,6.67
2017-06-15T14:46:01.026Z,7.80
2017-06-15T14:48:28.566Z,7.10
2017-06-15T14:50:56.261Z,6.70
2017-06-15T14:53:24.120Z,6.83
2017-06-15T14:55:51.718Z,7.80
2017-06-15T14:58:19.262Z,8.50
2017-06-15T15:00:46.841Z,7.87
2017-06-15T15:03:14.382Z,7.20
2017-06-15T15:05:45.625Z,7.60
2017-06-15T15:08:13.179Z,8.20
2017-06-15T15:10:40.721Z,10.10
2017-06-15T15:13:08.461Z,8.50
2017-06-15T15:15:36.010Z,8.13
2017-06-15T15:18:03.555Z,7.20
2017-06-15T15:20:31.848Z,8.23
2017-06-15T15:23:00.168Z,7.90
2017-06-15T15:25:27.718Z,8.13
2017-06-15T15:27:55.717Z,8.17
2017-06-15T15:30:23.260Z,7.83
2017-06-15T15:32:50.793Z,8.93
2017-06-15T15:35:18.910Z,9.23
2017-06-15T15:37:46.451Z,10.00
2017-06-15T15:40:13.998Z,9.40
2017-06-15T15:42:41.803Z,9.37
2017-06-15T15:45:09.722Z,10.80
2017-06-15T15:47:37.338Z,10.70
2017-06-15T15:50:04.890Z,10.90
2017-06-15T15:52:32.431Z,10.80
2017-06-15T15:55:00.016Z,9.93
2017-06-15T15:57:27.769Z,9.93
2017-06-15T15:59:55.340Z,10.00
2017-06-15T16:02:22.913Z,8.83
2017-06-15T16:04:50.697Z,8.93
2017-06-15T16:07:19.017Z,9.37
2017-06-15T16:09:46.563Z,9.67
2017-06-15T16:12:14.145Z,10.87
2017-06-15T16:14:41.701Z,11.40
2017-06-15T16:17:09.320Z,11.57
2017-06-15T16:19:36.867Z,11.23
2017-06-15T16:22:04.418Z,11.63
2017-06-15T16:24:32.375Z,12.57
2017-06-15T16:26:59.929Z,11.60
2017-06-15T16:29:27.477Z,12.67
2017-06-15T16:31:55.085Z,12.27
2017-06-15T16:34:22.691Z,11.87
2017-06-15T16:36:50.598Z,13.43
2017-06-15T16:39:18.162Z,12.10
2017-06-15T16:41:45.710Z,13.67
2017-06-15T16:44:13.466Z,13.40
2017-06-15T16:46:41.408Z,13.47
2017-06-15T16:49:08.982Z,13.20
2017-06-15T16:51:36.578Z,12.87
2017-06-15T16:54:04.176Z,14.20
2017-06-15T16:56:31.794Z,13.03
2017-06-15T16:58:59.361Z,13.53
2017-06-15T17:01:26.929Z,12.90
2017-06-15T17:03:54.589Z,12.30
2017-06-15T17:06:22.906Z,14.80
2017-06-15T17:08:50.494Z,14.13
2017-06-15T17:11:18.044Z,14.50
2017-06-15T17:13:45.633Z,14.10
2017-06-15T17:16:16.886Z,13.27
2017-06-15T17:18:44.457Z,14.30
2017-06-15T17:21:13.118Z,13.90
2017-06-15T17:23:40.666Z,13.70
2017-06-15T17:26:08.214Z,13.20
2017-06-15T17:28:35.803Z,12.40
2017-06-15T17:31:03.393Z,11.93
2017-06-15T17:33:30.946Z,11.83
2017-06-15T17:35:58.573Z,12.10
2017-06-15T17:38:26.119Z,13.17
2017-06-15T17:40:53.674Z,12.80
2017-06-15T17:43:21.670Z,11.77
2017-06-15T17:45:49.222Z,12.87
2017-06-15T17:48:20.859Z,11.57
2017-06-15T17:50:48.462Z,12.20
2017-06-15T17:53:16.017Z,13.27
2017-06-15T17:55:43.573Z,13.07
2017-06-15T17:58:11.162Z,11.97
2017-06-15T18:00:38.713Z,12.60
2017-06-15T18:03:06.550Z,11.53
2017-06-15T18:05:34.090Z,12.13
2017-06-15T18:08:01.682Z,12.20
2017-06-15T18:10:29.238Z,12.30
2017-06-15T18:12:56.785Z,12.00
2017-06-15T18:15:24.409Z,12.27
2017-06-15T18:17:51.969Z,11.80
2017-06-15T18:20:19.664Z,11.43
2017-06-15T18:22:47.343Z,11.77
2017-06-15T18:25:18.587Z,11.50
2017-06-15T18:27:46.138Z,11.07
2017-06-15T18:30:13.698Z,10.90
2017-06-15T18:32:41.291Z,11.30
2017-06-15T18:35:08.841Z,11.60
2017-06-15T18:37:36.730Z,11.43
2017-06-15T18:40:05.046Z,11.53
2017-06-15T18:42:32.609Z,11.30
2017-06-15T18:45:01.023Z,12.13
2017-06-15T18:47:28.574Z,11.40
2017-06-15T18:49:56.158Z,11.73
2017-06-15T18:52:23.711Z,12.50
2017-06-15T18:54:51.325Z,11.87
2017-06-15T18:57:18.902Z,11.30
2017-06-15T18:59:46.457Z,11.70
2017-06-15T19:02:14.158Z,11.37
2017-06-15T19:04:41.761Z,11.37
2017-06-15T19:07:09.313Z,10.23
2017-06-15T19:09:36.866Z,11.80
2017-06-15T19:12:04.498Z,12.00
2017-06-15T19:14:32.054Z,11.60
2017-06-15T19:17:00.949Z,11.57
2017-06-15T19:19:28.502Z,10.83
2017-06-15T19:21:56.577Z,12.10
2017-06-15T19:24:24.133Z,11.53
2017-06-15T19:26:51.678Z,11.33
2017-06-15T19:29:19.266Z,12.10
2017-06-15T19:31:46.814Z,11.90
2017-06-15T19:34:15.265Z,11.63
2017-06-15T19:36:42.830Z,12.83
2017-06-15T19:39:10.417Z,12.67
2017-06-15T19:41:39.422Z,11.93
2017-06-15T19:44:06.974Z,12.60
2017-06-15T19:46:34.841Z,13.33
2017-06-15T19:49:02.433Z,13.17
2017-06-15T19:51:30.746Z,13.23
2017-06-15T19:53:58.350Z,13.67
2017-06-15T19:56:25.910Z,13.90
2017-06-15T19:58:53.513Z,13.47
2017-06-15T20:01:22.578Z,12.80
2017-06-15T20:03:50.141Z,13.27
2017-06-15T20:06:18.469Z,13.80
2017-06-15T20:08:46.078Z,12.73
2017-06-15T20:11:13.681Z,12.70
2017-06-15T20:13:41.234Z,13.37
2017-06-15T20:16:09.673Z,14.37
2017-06-15T20:18:37.225Z,13.47
2017-06-15T20:21:05.001Z,15.07
2017-06-15T20:23:32.550Z,15.90
2017-06-15T20:26:00.103Z,15.40
2017-06-15T20:28:27.743Z,15.20
2017-06-15T20:30:55.290Z,15.10
2017-06-15T20:33:32.098Z,15.80
2017-06-15T20:35:59.705Z,14.13
2017-06-15T20:38:28.412Z,14.70
2017-06-15T20:40:56.150Z,14.00
2017-06-15T20:43:23.711Z,14.40
2017-06-15T20:45:51.322Z,13.20
2017-06-15T20:48:19.013Z,13.40
2017-06-15T20:50:46.570Z,12.60
2017-06-15T20:53:14.165Z,12.20
2017-06-15T20:55:41.719Z,11.10
2017-06-15T20:58:09.473Z,11.40
2017-06-15T21:00:37.035Z,10.60
2017-06-15T21:03:05.362Z,9.90
2017-06-15T21:05:32.952Z,9.70
2017-06-15T21:08:00.497Z,8.90
2017-06-15T21:10:28.133Z,8.93
2017-06-15T21:12:55.682Z,9.37
2017-06-15T21:15:23.270Z,9.20
2017-06-15T21:17:51.011Z,8.50
2017-06-15T21:20:18.564Z,8.57
2017-06-15T21:22:46.234Z,7.73
2017-06-15T21:25:13.782Z,8.40
2017-06-15T21:27:41.361Z,8.38
2017-06-15T21:30:08.949Z,8.17
2017-06-15T21:32:36.563Z,8.23
2017-06-15T21:35:04.306Z,8.05
2017-06-15T21:37:31.853Z,7.72
2017-06-15T21:39:59.410Z,7.75
2017-06-15T21:42:26.998Z,7.90
2017-06-15T21:44:55.313Z,8.00
2017-06-15T21:47:23.102Z,8.93
2017-06-15T21:49:50.663Z,8.25
2017-06-15T21:52:22.162Z,8.10
2017-06-15T21:54:49.741Z,7.62
2017-06-15T21:57:17.293Z,7.72
2017-06-15T21:59:44.882Z,7.47
2017-06-15T22:02:12.434Z,7.75
2017-06-15T22:04:40.031Z,7.00
2017-06-15T22:07:07.577Z,7.68
2017-06-15T22:09:35.356Z,7.45
2017-06-15T22:12:02.917Z,7.40
2017-06-15T22:14:30.509Z,7.10
2017-06-15T22:16:58.821Z,6.80
2017-06-15T22:19:26.461Z,6.05
2017-06-15T22:21:54.150Z,6.45
2017-06-15T22:24:21.696Z,6.10
2017-06-15T22:26:49.405Z,6.60
2017-06-15T22:29:16.953Z,6.40
2017-06-15T22:31:44.534Z,5.87
2017-06-15T22:34:12.086Z,5.70
2017-06-15T22:36:40.893Z,5.60
2017-06-15T22:39:09.206Z,5.10
2017-06-15T22:41:36.749Z,4.80
2017-06-15T22:44:04.469Z,4.85
2017-06-15T22:46:32.161Z,4.80
2017-06-15T22:48:59.782Z,4.80
2017-06-15T22:51:27.336Z,4.70
2017-06-15T22:53:54.885Z,4.78
2017-06-15T22:56:22.469Z,4.80
2017-06-15T22:58:50.070Z,4.68
2017-06-15T23:01:18.385Z,5.20
2017-06-15T23:03:45.925Z,4.70
2017-06-15T23:06:14.978Z,4.60
2017-06-15T23:08:42.522Z,5.10
2017-06-15T23:11:10.098Z,4.87
2017-06-15T23:13:37.641Z,5.47
2017-06-15T23:16:05.226Z,5.68
2017-06-15T23:18:32.773Z,5.47
2017-06-15T23:21:00.949Z,5.75
2017-06-15T23:23:28.495Z,6.05
2017-06-15T23:25:56.040Z,5.65
2017-06-15T23:28:24.040Z,5.45
2017-06-15T23:30:51.585Z,6.12
2017-06-15T23:33:19.130Z,5.68
2017-06-15T23:35:48.488Z,5.10
2017-06-15T23:38:16.149Z,5.62
2017-06-15T23:40:43.695Z,5.20
2017-06-15T23:43:11.328Z,5.78
2017-06-15T23:45:38.865Z,5.00
2017-06-15T23:48:06.726Z,4.80
2017-06-15T23:50:34.360Z,4.25
2017-06-15T23:53:02.670Z,4.20
2017-06-15T23:55:30.214Z,3.78
2017-06-15T23:57:57.910Z,3.72
